Pagrindinis puslapis
METAR-TAF:

METAR-TAF

Oro uostai :

Nadžranas, Saudo Arabija

platuma: 17-37N, ilguma: 044-25E, Aukštis: 1212 m

Dabartinis oras

Ataskaita buvo paskelbta 33 minutes, ne 10:00 UTC
Vėjas 4 kt iš Vakarų/Šiaurės Vakarų
Temperatūra 30°C
Drėgmė 21%
Slėgis 1016 hPa
Matomumas 10 km arba daugiau
nėra debesų žemiau 1500 m ir nėra kamuolinių lietaus debesų

METAR: OENG 071000Z 30004KT CAVOK 30/05 Q1016 NOSIG

Laikas: 13:33 (10:33 UTC)

Prognozė

Ataskaita buvo paskelbta 11 valandos ir 33 minutes, ne 23:00 UTC
Prognozė galioja nuo 07 metu 00 UTC su 08 metu 06 UTC
Vėjas 10 kt iš Vakarų
Matomumas 10 km arba daugiau
nėra debesų žemiau 1500 m ir nėra kamuolinių lietaus debesų
Tapsmas
nuo 07 metu 06 UTC su 07 metu 08 UTC
Vėjas 5 kt iš Pietų/Pietvakarių
Tapsmas
nuo 08 metu 00 UTC su 08 metu 02 UTC
Vėjas 3 kt nuo kintamojo kryptimis

TAF: OENG 062300Z 0700/0806 27010KT CAVOK BECMG 0706/0708 20005KT BECMG 0800/0802 VRB03KT

Orai ataskaitas ir orų prognozės (METAR, TAF).

turimą stotys yra geltonos ir raudonos taškus žemėlapyje.

Perkelti pele per norėdami pamatyti stoties vardą.

Tada spustelėkite, norėdami matyti oro stebėjimo ir prognozės.

Norėdami pakeisti žemėlapį: spustelėkite ant žalios mygtukų su juodo kryžiaus žemyn,; žalią mygtuką su brūkšneliu, jei norite nutolinti; arba žalių rodyklių gretimoms žemėlapius.


METAR-TAF: